Clima Ilopango International Airport
Currently
Currently
Currently
METAR
MSSS 171250Z 35007KT CAVOK 20/17 Q1014 A2996 MSSS 171150Z 36007KT CAVOK 20/16 Q1013 A2993 TAF MSSS 170925Z 1712/1812 36008KT CAVOK TX31/1718Z TN20/1811Z FM171900 18012KT 9999 FEW043 FM180000 19006KT FM180500 35004KT CAVOK
TAF
MSSS 170925Z 1712/1812 36008KT CAVOK TX31/1718Z TN20/1811Z FM171900 18012KT 9999 FEW043 FM180000 19006KT FM180500 35004KT CAVOK

Cámaras Aeroclub

Norte

Este

Sur

Oeste

AIS/AIP El Salvador

Autoridad de Aviación Civil (AAC) El Salvador

VER DOCUMENTO